Time;durP1;ratioP1;P1;durP2;ratioP2;P2;SDS_P1;SDS_P2;PMS_P1;PMS_P2;Temp;Humidity;BMP_temperature;BMP_pressure;BME280_temperature;BME280_humidity;BME280_pressure;Samples;Min_cycle;Max_cycle;Signal;HPM_P1;HPM_P2
2022/04/13 00:02:08;;;;;;;;;1.00;1.00;;;;;18.48;50.08;100836.38;5078412;27;45529;-73
2022/04/13 00:04:34;;;;;;;;;0.67;0.67;;;;;18.49;50.13;100832.84;5075907;27;45436;-71
2022/04/13 00:07:00;;;;;;;;;2.00;0.67;;;;;18.49;50.55;100837.28;5079391;27;45397;-69
2022/04/13 00:09:26;;;;;;;;;1.00;1.00;;;;;18.25;50.22;100805.25;5078882;27;45435;-73
2022/04/13 00:11:54;;;;;;;;;1.00;1.00;;;;;18.08;50.12;100775.69;5078389;27;45349;-72
2022/04/13 00:14:22;;;;;;;;;1.00;1.00;;;;;17.96;50.44;100753.03;5077733;28;46646;-73
2022/04/13 00:16:51;;;;;;;;;3.00;1.00;;;;;18.37;50.93;100849.97;5077401;27;45511;-67
2022/04/13 00:19:21;;;;;;;;;1.00;1.00;;;;;18.25;51.15;100844.13;5077601;27;45473;-73
2022/04/13 00:21:48;;;;;;;;;1.00;1.00;;;;;18.28;51.46;100860.81;5077721;27;45479;-70
2022/04/13 00:24:13;;;;;;;;;1.00;1.00;;;;;18.16;51.24;100840.81;5075732;28;45282;-71
2022/04/13 00:26:40;;;;;;;;;1.00;1.00;;;;;18.25;51.25;100863.56;5076902;28;45952;-72
2022/04/13 00:29:05;;;;;;;;;2.00;1.00;;;;;18.17;51.53;100853.16;5077211;27;45427;-69
2022/04/13 00:31:31;;;;;;;;;1.00;1.00;;;;;18.06;51.66;100844.66;5077372;27;45442;-70
2022/04/13 00:33:57;;;;;;;;;1.00;1.00;;;;;18.19;51.65;100874.34;5077164;27;46522;-70
2022/04/13 00:36:23;;;;;;;;;1.00;1.00;;;;;18.18;51.85;100867.31;5076945;27;45607;-70
2022/04/13 00:38:48;;;;;;;;;1.67;1.67;;;;;18.19;52.03;100876.97;5076076;28;45372;-72
2022/04/13 00:41:14;;;;;;;;;1.33;1.00;;;;;18.19;51.89;100863.72;5077088;28;45460;-71
2022/04/13 00:44:04;;;;;;;;;1.00;1.00;;;;;18.06;51.75;100844.66;5076649;27;46117;-73
2022/04/13 00:46:31;;;;;;;;;1.00;1.00;;;;;18.22;51.50;100859.22;5076411;27;45467;-71
2022/04/13 00:48:57;;;;;;;;;1.00;1.00;;;;;18.09;51.81;100826.00;5076504;27;45500;-72
2022/04/13 00:51:24;;;;;;;;;2.00;2.00;;;;;18.17;51.83;100834.59;5077137;27;45442;-70
2022/04/13 00:53:56;;;;;;;;;1.00;1.00;;;;;18.25;51.70;100846.78;5076239;27;45586;-71
2022/04/13 00:56:24;;;;;;;;;3.00;1.00;;;;;18.25;51.59;100849.41;5076748;28;45403;-69
2022/04/13 00:58:57;;;;;;;;;0.00;0.00;;;;;18.28;51.77;100852.00;5076906;27;45409;-69
2022/04/13 01:01:25;;;;;;;;;1.00;1.00;;;;;18.12;51.83;100833.88;5076967;27;45521;-68
2022/04/13 01:03:52;;;;;;;;;3.00;2.00;;;;;18.20;51.81;100854.88;5076756;27;46362;-68
2022/04/13 01:06:19;;;;;;;;;0.67;0.67;;;;;18.18;52.11;100854.06;5076747;28;45337;-68
2022/04/13 01:08:50;;;;;;;;;1.00;1.00;;;;;17.96;52.10;100821.94;5079974;27;45474;-67
2022/04/13 01:11:18;;;;;;;;;3.33;2.00;;;;;18.04;52.21;100843.81;5080173;27;45480;-70
2022/04/13 01:13:45;;;;;;;;;0.67;0.67;;;;;18.10;52.20;100838.34;5079262;27;45291;-71
2022/04/13 01:16:11;;;;;;;;;1.00;1.00;;;;;18.16;51.98;100862.03;5079671;27;45444;-70
2022/04/13 01:18:36;;;;;;;;;1.00;1.00;;;;;18.09;51.86;100841.91;5080195;27;45444;-71
2022/04/13 01:21:02;;;;;;;;;2.67;0.33;;;;;18.17;52.17;100857.59;5078872;27;45400;-70
2022/04/13 01:23:28;;;;;;;;;2.00;1.00;;;;;18.08;52.32;100837.53;5079784;28;46036;-71
2022/04/13 01:25:55;;;;;;;;;3.33;1.00;;;;;18.03;52.42;100836.75;5079420;27;45486;-69
2022/04/13 01:28:22;;;;;;;;;1.00;1.00;;;;;18.14;52.51;100863.00;5080140;27;45349;-70
2022/04/13 01:30:48;;;;;;;;;2.00;2.00;;;;;18.14;52.79;100869.16;5080298;27;45566;-71
2022/04/13 01:33:17;;;;;;;;;1.00;1.00;;;;;18.02;52.66;100851.81;5078474;27;46213;-69
2022/04/13 01:35:42;;;;;;;;;1.00;1.00;;;;;18.00;52.58;100860.72;5079624;27;45481;-71
2022/04/13 01:38:08;;;;;;;;;2.00;2.00;;;;;18.04;52.77;100865.03;5079747;28;45717;-71
2022/04/13 01:40:34;;;;;;;;;2.00;2.00;;;;;17.96;52.53;100845.78;5080049;27;45422;-70
2022/04/13 01:43:00;;;;;;;;;2.00;2.00;;;;;18.02;53.01;100853.59;5079140;28;45463;-71
2022/04/13 01:45:29;;;;;;;;;1.00;1.00;;;;;17.90;52.86;100843.31;5079159;28;45353;-72
2022/04/13 01:47:55;;;;;;;;;2.67;1.00;;;;;18.12;52.94;100873.63;5079774;27;45476;-67
2022/04/13 01:50:24;;;;;;;;;1.00;0.67;;;;;18.10;52.85;100874.56;5081761;27;45502;-69
2022/04/13 01:52:50;;;;;;;;;2.00;2.00;;;;;18.09;52.94;100873.72;5081893;27;45512;-71
2022/04/13 01:55:17;;;;;;;;;2.33;1.33;;;;;18.06;52.78;100868.50;5079265;27;45432;-71
2022/04/13 01:57:43;;;;;;;;;1.00;1.00;;;;;17.35;53.01;100752.91;5079382;27;45275;-70
2022/04/13 02:00:10;;;;;;;;;1.00;1.00;;;;;18.15;52.88;100892.13;5080377;27;45468;-71
2022/04/13 02:02:36;;;;;;;;;2.00;2.00;;;;;18.12;53.13;100889.53;5080066;27;45940;-70
2022/04/13 02:05:02;;;;;;;;;3.00;2.00;;;;;18.13;53.22;100895.72;5080520;27;45473;-67
2022/04/13 02:07:28;;;;;;;;;2.00;1.00;;;;;18.09;53.15;100891.41;5081662;27;45369;-69
2022/04/13 02:09:55;;;;;;;;;3.00;2.00;;;;;18.10;53.54;100899.28;5081320;27;45409;-69
2022/04/13 02:12:20;;;;;;;;;1.67;1.67;;;;;18.02;53.25;100883.59;5081112;27;46136;-70
2022/04/13 02:14:46;;;;;;;;;2.00;2.00;;;;;18.06;53.21;100892.34;5080778;27;45294;-68
2022/04/13 02:17:16;;;;;;;;;1.00;1.00;;;;;18.04;53.57;100898.63;5081414;27;45609;-68
2022/04/13 02:19:45;;;;;;;;;1.00;1.00;;;;;17.91;53.55;100872.41;5078528;27;45560;-68
2022/04/13 02:22:11;;;;;;;;;1.67;1.33;;;;;17.88;53.69;100875.16;5080524;27;45740;-68
2022/04/13 02:24:39;;;;;;;;;1.00;1.00;;;;;18.01;53.67;100900.44;5078702;28;45491;-68
2022/04/13 02:27:07;;;;;;;;;3.00;3.00;;;;;18.01;53.54;100896.91;5079382;27;45489;-67
2022/04/13 02:29:34;;;;;;;;;3.00;1.67;;;;;17.99;53.56;100896.94;5077981;27;45556;-70
2022/04/13 02:32:01;;;;;;;;;1.00;1.00;;;;;17.94;53.79;100898.84;5078935;27;45476;-71
2022/04/13 02:34:26;;;;;;;;;2.00;2.00;;;;;17.98;54.00;100905.78;5079180;28;45543;-72
2022/04/13 02:36:58;;;;;;;;;2.00;2.00;;;;;17.94;53.87;100911.25;5079129;27;45266;-72
2022/04/13 02:39:23;;;;;;;;;3.00;2.00;;;;;17.51;53.91;100835.44;5079375;27;46010;-72
2022/04/13 02:41:49;;;;;;;;;3.00;1.67;;;;;17.90;54.15;100913.06;5078542;27;45716;-72
2022/04/13 02:44:15;;;;;;;;;2.00;2.00;;;;;17.90;54.42;100912.22;5078587;28;45386;-71
2022/04/13 02:46:41;;;;;;;;;2.00;2.00;;;;;17.84;54.53;100910.56;5078959;27;45469;-72
2022/04/13 02:49:07;;;;;;;;;2.67;2.00;;;;;17.84;54.32;100896.47;5079116;27;45476;-71
2022/04/13 02:51:33;;;;;;;;;3.00;3.00;;;;;17.90;54.35;100907.78;5080218;27;45366;-73
2022/04/13 02:53:59;;;;;;;;;3.33;3.00;;;;;17.88;54.96;100895.47;5084137;27;45283;-71
2022/04/13 02:56:28;;;;;;;;;2.00;2.00;;;;;17.74;54.54;100882.53;5088119;27;45401;-71
2022/04/13 02:58:53;;;;;;;;;2.33;2.33;;;;;17.68;54.59;100870.34;5087653;27;45320;-71
2022/04/13 03:01:19;;;;;;;;;4.00;2.00;;;;;17.87;54.49;100901.66;5085703;27;45526;-70
2022/04/13 03:03:44;;;;;;;;;2.00;2.00;;;;;17.85;55.13;100900.88;5083280;28;45382;-71
2022/04/13 03:06:10;;;;;;;;;2.00;2.00;;;;;17.84;54.85;100901.75;5079702;27;45191;-71
2022/04/13 03:08:36;;;;;;;;;2.33;2.33;;;;;17.72;55.27;100893.16;5079817;27;45285;-69
2022/04/13 03:11:01;;;;;;;;;2.00;2.00;;;;;17.82;55.31;100915.06;5078273;27;46091;-72
2022/04/13 03:13:27;;;;;;;;;2.00;2.00;;;;;17.83;55.38;100919.44;5079076;28;45334;-71
2022/04/13 03:15:52;;;;;;;;;2.00;2.00;;;;;17.71;55.43;100911.78;5078673;27;45286;-70
2022/04/13 03:18:18;;;;;;;;;2.00;2.00;;;;;17.63;55.81;100900.47;5078522;27;45251;-69
2022/04/13 03:20:45;;;;;;;;;3.00;1.67;;;;;17.79;56.33;100933.63;5078125;27;45901;-72
2022/04/13 03:23:10;;;;;;;;;2.00;2.00;;;;;17.77;56.41;100944.28;5077822;27;45491;-68
2022/04/13 03:25:36;;;;;;;;;2.00;2.00;;;;;17.69;56.28;100924.19;5076316;27;45457;-69
2022/04/13 03:28:01;;;;;;;;;2.00;2.00;;;;;17.74;56.45;100936.41;5078159;28;45390;-69
2022/04/13 03:30:27;;;;;;;;;2.67;2.00;;;;;17.72;56.43;100934.69;5077254;27;45416;-69
2022/04/13 03:32:52;;;;;;;;;2.00;2.00;;;;;17.73;56.75;100947.03;5077947;27;45496;-70
2022/04/13 03:35:18;;;;;;;;;2.33;2.33;;;;;17.71;57.21;100951.50;5077721;27;45487;-67
2022/04/13 03:37:48;;;;;;;;;4.00;2.67;;;;;17.64;57.41;100945.47;5077995;27;45577;-70
2022/04/13 03:40:17;;;;;;;;;2.00;2.00;;;;;17.67;57.64;100963.06;5076119;27;45742;-72
2022/04/13 03:42:43;;;;;;;;;2.33;2.33;;;;;17.34;57.66;100907.34;5077508;27;45704;-69
2022/04/13 03:45:11;;;;;;;;;2.67;2.67;;;;;17.27;58.23;100901.31;5077861;27;45352;-70
2022/04/13 03:47:39;;;;;;;;;3.00;2.67;;;;;17.37;58.41;100924.03;5076591;27;45417;-73
2022/04/13 03:50:05;;;;;;;;;5.00;2.00;;;;;17.57;58.54;100958.00;5075969;27;47823;-71
2022/04/13 03:52:33;;;;;;;;;3.00;3.00;;;;;17.42;58.35;100928.38;5076220;27;45552;-70
2022/04/13 03:55:00;;;;;;;;;4.67;2.00;;;;;17.56;58.65;100956.25;5068388;28;45382;-71
2022/04/13 03:57:25;;;;;;;;;3.00;3.00;;;;;17.32;58.52;100920.63;5057454;28;45592;-71
2022/04/13 03:59:52;;;;;;;;;4.67;1.00;;;;;17.55;59.00;100957.16;5055180;28;45530;-70
2022/04/13 04:02:17;;;;;;;;;3.00;2.00;;;;;16.88;59.09;100851.03;5056847;28;45528;-70
2022/04/13 04:04:43;;;;;;;;;2.33;2.33;;;;;17.21;59.27;100890.88;5065838;27;45483;-72
2022/04/13 04:07:09;;;;;;;;;3.67;3.00;;;;;17.29;59.52;100915.38;5077280;27;45317;-72
2022/04/13 04:09:35;;;;;;;;;2.33;2.33;;;;;17.16;59.90;100892.78;5075473;28;47723;-72
2022/04/13 04:12:00;;;;;;;;;4.33;3.67;;;;;17.42;60.27;100938.97;5077221;27;45495;-73
2022/04/13 04:14:26;;;;;;;;;7.67;5.67;;;;;17.49;60.28;100959.97;5075998;27;45556;-72
2022/04/13 04:16:52;;;;;;;;;5.00;5.00;;;;;17.52;59.99;100974.91;5076060;28;45972;-71
2022/04/13 04:19:18;;;;;;;;;3.00;3.00;;;;;17.51;60.03;100968.75;5077001;27;45467;-69
2022/04/13 04:21:44;;;;;;;;;4.33;3.67;;;;;17.52;60.03;100972.25;5065859;27;45399;-71
2022/04/13 04:24:09;;;;;;;;;5.00;3.67;;;;;17.53;60.38;100976.63;5060972;28;45422;-71
2022/04/13 04:26:35;;;;;;;;;3.67;3.67;;;;;17.49;60.59;100967.03;5077036;27;45433;-70
2022/04/13 04:29:00;;;;;;;;;3.33;3.00;;;;;17.53;60.73;100979.28;5076932;28;46325;-68
2022/04/13 04:34:19;;;;;;;;;17.00;13.67;;;;;17.48;60.18;100992.63;5056541;28;45458;-74
2022/04/13 04:36:45;;;;;;;;;8.67;7.67;;;;;17.23;61.22;100941.16;5056661;28;45510;-70
2022/04/13 04:39:12;;;;;;;;;7.67;6.00;;;;;17.44;61.45;100990.09;5056315;28;45492;-73
2022/04/13 04:41:41;;;;;;;;;9.33;5.33;;;;;17.46;61.59;100991.78;5058354;28;45552;-72
2022/04/13 04:44:09;;;;;;;;;4.33;4.33;;;;;17.43;61.69;100999.81;5060510;28;45456;-71
2022/04/13 04:46:35;;;;;;;;;7.00;4.00;;;;;17.43;62.02;100998.94;5060246;28;45505;-70
2022/04/13 04:49:02;;;;;;;;;3.33;3.00;;;;;17.41;61.66;100996.31;5059947;28;46386;-70
2022/04/13 04:51:30;;;;;;;;;6.00;5.00;;;;;17.12;61.68;100950.19;5059846;28;45453;-70
2022/04/13 04:53:56;;;;;;;;;5.00;4.00;;;;;17.31;62.10;100990.34;5059655;28;45500;-72
2022/04/13 04:56:22;;;;;;;;;3.33;3.33;;;;;17.22;62.11;100987.03;5060255;28;45318;-73
2022/04/13 04:58:48;;;;;;;;;4.33;4.33;;;;;17.25;62.20;100993.16;5059115;28;45398;-74
2022/04/13 05:01:13;;;;;;;;;5.67;4.00;;;;;17.13;62.25;100989.00;5059779;28;45533;-72
2022/04/13 05:03:41;;;;;;;;;3.33;3.00;;;;;17.18;62.65;100996.84;5059734;28;45801;-69
2022/04/13 05:06:07;;;;;;;;;5.33;3.67;;;;;16.94;62.50;100963.78;5058559;28;45544;-70
2022/04/13 05:08:33;;;;;;;;;6.67;4.00;;;;;17.05;62.96;100993.56;5060291;28;46398;-72
2022/04/13 05:10:59;;;;;;;;;5.33;3.00;;;;;16.93;62.89;100975.28;5059471;28;45690;-70
2022/04/13 05:13:25;;;;;;;;;6.67;4.00;;;;;17.13;62.78;101011.91;5063813;28;45437;-71
2022/04/13 05:15:56;;;;;;;;;3.67;3.67;;;;;17.01;62.75;100997.16;5072570;27;45395;-72
2022/04/13 05:18:21;;;;;;;;;4.00;4.00;;;;;17.10;62.90;101014.63;5060867;28;46236;-71
2022/04/13 05:20:47;;;;;;;;;6.00;4.00;;;;;17.05;63.16;101022.66;5078012;27;45452;-71
2022/04/13 05:23:37;;;;;;;;;7.00;5.33;;;;;16.94;63.44;101020.25;5080125;27;45308;-72
2022/04/13 05:26:04;;;;;;;;;4.00;3.00;;;;;16.97;63.66;101035.19;5080046;27;45523;-69
2022/04/13 05:28:29;;;;;;;;;5.33;3.67;;;;;16.93;63.42;101029.06;5079552;27;45627;-71
2022/04/13 05:30:56;;;;;;;;;5.00;5.00;;;;;16.80;63.43;101000.22;5079493;27;45497;-72
2022/04/13 05:33:22;;;;;;;;;7.00;5.67;;;;;16.79;63.96;100999.38;5080050;27;45820;-73
2022/04/13 05:35:47;;;;;;;;;5.00;5.00;;;;;16.86;63.91;101019.50;5078761;28;45478;-71
2022/04/13 05:38:14;;;;;;;;;8.67;5.00;;;;;16.65;64.07;100990.78;5080002;27;45458;-72
2022/04/13 05:40:39;;;;;;;;;6.00;4.00;;;;;16.88;64.07;101028.28;5079877;27;45820;-71
2022/04/13 05:43:05;;;;;;;;;5.00;5.00;;;;;16.56;64.03;100970.69;5082281;27;45411;-71
2022/04/13 05:45:31;;;;;;;;;6.00;6.00;;;;;16.78;63.94;101031.13;5082184;27;45480;-73
2022/04/13 05:47:57;;;;;;;;;8.00;6.00;;;;;16.58;64.97;101011.19;5083805;27;45405;-72
2022/04/13 05:50:24;;;;;;;;;5.00;4.33;;;;;16.56;65.29;101023.56;5083181;27;45298;-73
2022/04/13 05:52:49;;;;;;;;;8.33;7.00;;;;;16.61;65.10;101034.97;5082750;27;45306;-71
2022/04/13 05:55:15;;;;;;;;;7.00;5.67;;;;;16.60;64.62;101029.69;5083660;27;45466;-70
2022/04/13 05:57:41;;;;;;;;;8.00;5.00;;;;;16.62;64.94;101039.34;5081358;27;45355;-69
2022/04/13 06:00:10;;;;;;;;;6.33;6.33;;;;;16.44;65.03;101014.09;5082465;27;45362;-72
2022/04/13 06:02:37;;;;;;;;;7.00;5.33;;;;;16.58;65.30;101042.06;5084492;27;45301;-71
2022/04/13 06:05:06;;;;;;;;;6.00;6.00;;;;;16.42;65.39;101013.25;5084847;27;45527;-72
2022/04/13 06:07:33;;;;;;;;;9.00;5.67;;;;;16.61;64.87;101055.22;5082698;27;46385;-69
2022/04/13 06:10:02;;;;;;;;;5.33;3.67;;;;;16.67;64.83;101058.63;5080499;27;45687;-72
2022/04/13 06:12:28;;;;;;;;;7.00;5.33;;;;;16.64;64.75;101044.59;5079034;27;45470;-72
2022/04/13 06:15:02;;;;;;;;;9.33;7.67;;;;;16.59;65.42;101044.69;5079429;27;45385;-72
2022/04/13 06:17:28;;;;;;;;;6.00;6.00;;;;;16.58;64.75;101057.91;5079291;27;45520;-71
2022/04/13 06:19:53;;;;;;;;;4.33;4.33;;;;;16.61;65.13;101068.44;5078794;27;45470;-72
2022/04/13 06:22:19;;;;;;;;;6.00;5.33;;;;;16.64;64.71;101068.41;5079349;27;45286;-71
2022/04/13 06:24:44;;;;;;;;;6.33;5.33;;;;;16.67;64.49;101069.22;5079453;28;45373;-71
2022/04/13 06:27:23;;;;;;;;;6.00;6.00;;;;;16.65;64.76;101059.56;5080749;27;45911;-72
2022/04/13 06:29:49;;;;;;;;;6.00;5.00;;;;;16.67;64.76;101063.06;5079795;27;45544;-72
2022/04/13 06:32:15;;;;;;;;;9.33;6.67;;;;;16.71;64.86;101076.19;5079620;28;45812;-71
2022/04/13 06:34:40;;;;;;;;;8.67;8.67;;;;;16.52;65.67;101058.91;5078995;27;45488;-71
2022/04/13 06:37:12;;;;;;;;;5.67;5.67;;;;;16.65;65.87;101088.66;5079059;27;45352;-72
2022/04/13 06:39:41;;;;;;;;;9.00;9.00;;;;;16.62;65.75;101094.00;5079023;27;45533;-71
2022/04/13 06:42:07;;;;;;;;;6.67;6.67;;;;;16.69;66.25;101100.94;5078320;27;45390;-68
2022/04/13 06:44:44;;;;;;;;;7.00;6.67;;;;;16.73;66.04;101100.84;5079095;27;46296;-70
2022/04/13 06:47:11;;;;;;;;;10.67;6.33;;;;;16.58;66.26;101079.94;5078194;27;45586;-71
2022/04/13 06:49:36;;;;;;;;;10.67;8.67;;;;;16.51;66.10;101086.22;5071597;27;45374;-70
2022/04/13 06:52:02;;;;;;;;;8.33;8.33;;;;;16.37;66.78;101078.53;5078363;27;45484;-73
2022/04/13 06:54:27;;;;;;;;;9.33;8.33;;;;;16.56;66.66;101121.41;5077463;28;45279;-72
2022/04/13 06:56:54;;;;;;;;;13.00;11.00;;;;;16.55;66.43;101130.25;5077995;28;45547;-73
2022/04/13 06:59:41;;;;;;;;;9.33;7.00;;;;;16.28;66.86;101095.44;5076476;27;45319;-73
2022/04/13 07:02:10;;;;;;;;;14.00;9.67;;;;;16.57;67.31;101156.69;5078614;27;45422;-71
2022/04/13 07:04:37;;;;;;;;;10.67;8.67;;;;;16.52;67.19;101156.75;5076099;27;45492;-71
2022/04/13 07:07:02;;;;;;;;;11.67;8.33;;;;;16.48;67.25;101149.75;5077307;27;45373;-72
2022/04/13 07:09:30;;;;;;;;;11.00;8.67;;;;;16.49;66.98;101155.03;5077679;28;45431;-73
2022/04/13 07:11:56;;;;;;;;;10.67;10.33;;;;;16.54;67.08;101158.47;5077652;27;45568;-70
2022/04/13 07:14:25;;;;;;;;;12.33;11.00;;;;;16.62;67.24;101171.56;5078043;27;45520;-72
2022/04/13 07:16:59;;;;;;;;;10.33;8.00;;;;;16.66;67.35;101180.34;5077404;27;46080;-71
2022/04/13 07:19:28;;;;;;;;;13.67;7.00;;;;;16.73;66.90;101196.06;5077714;27;45468;-69
2022/04/13 07:21:54;;;;;;;;;10.00;8.67;;;;;16.75;66.57;101188.09;5071196;27;45366;-69
2022/04/13 07:24:20;;;;;;;;;12.33;9.67;;;;;16.80;66.81;101195.97;5063473;28;45432;-69
2022/04/13 07:26:45;;;;;;;;;8.33;8.33;;;;;16.77;66.96;101185.44;5068235;27;45527;-70
2022/04/13 07:29:11;;;;;;;;;14.00;9.33;;;;;16.84;66.58;101195.91;5077916;27;45420;-71
2022/04/13 07:31:36;;;;;;;;;8.67;6.67;;;;;16.87;66.66;101200.28;5077939;27;45467;-72
2022/04/13 07:34:02;;;;;;;;;13.33;11.67;;;;;16.91;66.78;101194.03;5069066;27;45558;-69
2022/04/13 07:36:29;;;;;;;;;16.67;14.33;;;;;16.89;66.88;101193.19;5077091;27;45581;-71
2022/04/13 07:38:54;;;;;;;;;11.67;11.33;;;;;16.92;67.14;101196.69;5066463;27;45508;-71
2022/04/13 07:41:20;;;;;;;;;16.00;12.67;;;;;16.98;66.93;101200.97;5057597;28;45503;-70
2022/04/13 07:43:50;;;;;;;;;12.67;11.67;;;;;16.99;66.85;101201.84;5056662;28;45327;-71
2022/04/13 07:46:16;;;;;;;;;15.67;10.00;;;;;16.98;66.54;101195.69;5057831;28;45527;-72
2022/04/13 07:48:42;;;;;;;;;18.67;15.33;;;;;17.04;66.76;101205.31;5057792;28;45534;-72
2022/04/13 07:51:08;;;;;;;;;19.33;13.67;;;;;17.06;66.81;101200.84;5064435;28;45418;-71
2022/04/13 07:53:34;;;;;;;;;10.67;8.67;;;;;17.00;66.82;101209.75;5076622;27;45458;-73
2022/04/13 07:56:04;;;;;;;;;11.00;10.00;;;;;16.95;66.59;101209.84;5070209;28;45966;-70
2022/04/13 07:58:30;;;;;;;;;16.33;10.33;;;;;16.94;66.83;101205.47;5076023;27;45273;-70
2022/04/13 08:00:56;;;;;;;;;9.33;8.00;;;;;16.92;66.65;101195.81;5077668;27;45329;-68
2022/04/13 08:03:22;;;;;;;;;9.67;8.00;;;;;16.91;66.76;101207.28;5078211;27;45366;-68
2022/04/13 08:05:48;;;;;;;;;10.00;9.00;;;;;16.97;66.71;101208.97;5077617;27;46183;-70
2022/04/13 08:08:14;;;;;;;;;9.00;7.67;;;;;16.98;66.79;101210.69;5074400;27;45527;-72
2022/04/13 08:10:45;;;;;;;;;6.67;6.67;;;;;17.00;66.61;101209.75;5057516;28;45404;-70
2022/04/13 08:13:12;;;;;;;;;8.67;7.00;;;;;17.02;66.02;101207.09;5058272;28;45513;-73
2022/04/13 08:15:37;;;;;;;;;4.00;2.00;;;;;16.82;66.19;101189.78;5073850;27;46149;-71
2022/04/13 08:18:03;;;;;;;;;9.33;6.00;;;;;16.89;66.52;101211.72;5075007;28;45615;-72
2022/04/13 08:20:29;;;;;;;;;8.67;6.67;;;;;16.61;66.07;101174.22;5072073;28;45519;-71
2022/04/13 08:22:56;;;;;;;;;7.67;7.00;;;;;16.83;65.93;101225.94;5075596;28;45784;-73
2022/04/13 08:25:21;;;;;;;;;9.00;9.00;;;;;16.66;66.00;101210.28;5074962;28;46258;-70
2022/04/13 08:27:48;;;;;;;;;14.00;8.33;;;;;16.68;66.52;101219.06;5074001;28;45333;-72
2022/04/13 08:30:14;;;;;;;;;10.33;10.33;;;;;16.67;66.95;101222.59;5075443;27;45545;-71
2022/04/13 08:32:40;;;;;;;;;9.67;9.00;;;;;16.64;66.78;101221.78;5074641;27;45249;-69
2022/04/13 08:35:09;;;;;;;;;10.67;9.00;;;;;16.66;66.88;101226.16;5075038;28;45620;-71
2022/04/13 08:37:35;;;;;;;;;15.00;11.00;;;;;16.64;67.13;101235.03;5073985;27;45930;-71
2022/04/13 08:40:01;;;;;;;;;11.33;11.00;;;;;16.63;66.77;101244.69;5075019;27;45536;-69
2022/04/13 08:42:42;;;;;;;;;8.67;5.67;;;;;16.68;67.12;101249.91;5068705;28;45576;-70
2022/04/13 08:45:20;;;;;;;;;12.67;10.33;;;;;16.64;66.98;101241.16;5063753;28;46280;-71
2022/04/13 08:47:47;;;;;;;;;12.00;7.00;;;;;16.72;67.13;101256.91;5075616;27;45400;-70
2022/04/13 08:50:20;;;;;;;;;11.67;9.00;;;;;16.51;66.89;101224.63;5074925;27;45370;-72
2022/04/13 08:52:53;;;;;;;;;9.00;9.00;;;;;16.69;66.95;101267.56;5073599;28;45924;-70
2022/04/13 08:55:22;;;;;;;;;10.67;8.67;;;;;16.57;66.82;101252.75;5074667;27;46098;-70
2022/04/13 08:57:54;;;;;;;;;14.67;11.67;;;;;16.57;66.83;101273.91;5069888;28;45482;-69
2022/04/13 09:00:21;;;;;;;;;12.00;12.00;;;;;16.39;67.38;101274.13;5074733;27;46331;-71
2022/04/13 09:02:50;;;;;;;;;17.00;13.00;;;;;16.32;68.00;101283.91;5074305;27;45284;-72
2022/04/13 09:05:28;;;;;;;;;13.33;11.00;;;;;16.26;68.21;101292.81;5074780;27;47632;-73
2022/04/13 09:08:09;;;;;;;;;10.67;7.00;;;;;16.24;68.04;101299.00;5075886;27;46064;-72
2022/04/13 09:11:06;;;;;;;;;7.67;6.67;;;;;16.26;67.51;101292.81;5075364;28;45424;-73
2022/04/13 09:14:26;;;;;;;;;10.67;7.33;;;;;16.28;67.34;101300.72;5071331;28;45499;-72
2022/04/13 09:16:55;;;;;;;;;10.67;9.33;;;;;15.97;67.25;101253.53;5072305;28;48092;-73
2022/04/13 09:19:53;;;;;;;;;11.67;9.33;;;;;16.23;67.82;101305.19;5074747;28;45544;-72
2022/04/13 09:22:22;;;;;;;;;12.33;10.33;;;;;15.94;67.80;101247.41;5076867;27;45256;-72
2022/04/13 09:24:54;;;;;;;;;9.67;9.67;;;;;16.26;68.07;101306.03;5066495;27;46073;-72
2022/04/13 09:27:22;;;;;;;;;6.67;6.67;;;;;16.29;67.81;101299.81;5074847;27;45586;-69
2022/04/13 09:29:48;;;;;;;;;11.67;8.67;;;;;16.41;67.99;101312.88;5078598;27;45487;-72
2022/04/13 09:32:59;;;;;;;;;13.00;11.67;;;;;16.37;68.07;101320.88;5078407;28;45834;-73
2022/04/13 09:35:33;;;;;;;;;10.67;10.00;;;;;16.21;68.20;101328.13;5080827;27;45449;-74
2022/04/13 09:38:29;;;;;;;;;11.33;10.33;;;;;16.04;67.77;101333.59;5078699;27;45606;-72
2022/04/13 09:45:07;;;;;;;;;13.33;12.67;;;;;15.93;69.53;101336.34;4979993;28;45397;-69
2022/04/13 09:47:35;;;;;;;;;11.33;11.33;;;;;15.93;69.17;101333.72;5073949;28;45561;-71
2022/04/13 09:50:02;;;;;;;;;18.75;15.50;;;;;15.60;70.13;101287.38;5080315;27;45501;-68
2022/04/13 09:52:43;;;;;;;;;11.50;11.50;;;;;15.82;69.84;101320.59;5078705;27;45400;-69
2022/04/13 09:55:55;;;;;;;;;16.75;12.75;;;;;15.86;69.63;101319.69;5074812;28;45375;-73
2022/04/13 09:58:26;;;;;;;;;17.00;13.50;;;;;15.99;69.09;101332.75;5054761;28;45572;-71
2022/04/13 10:01:00;;;;;;;;;20.00;18.00;;;;;15.99;69.76;101320.47;5076043;28;46728;-72
2022/04/13 10:03:59;;;;;;;;;12.67;12.67;;;;;16.02;69.76;101328.34;5077336;28;45564;-72
2022/04/13 10:06:27;;;;;;;;;13.00;13.00;;;;;15.90;69.19;101296.78;5060684;28;45440;-72
2022/04/13 10:09:08;;;;;;;;;14.67;10.00;;;;;16.14;69.32;101332.59;5073443;28;45452;-71
2022/04/13 10:12:02;;;;;;;;;11.33;9.33;;;;;16.14;69.08;101329.97;5077656;27;45635;-71
2022/04/13 10:15:21;;;;;;;;;;;;;;;;;;;;;
2022/04/13 10:17:49;;;;;;;;;10.33;9.33;;;;;15.92;68.68;101291.44;5074146;28;68783;-70
2022/04/13 10:20:15;;;;;;;;;13.00;10.00;;;;;16.14;68.79;101329.97;5079395;28;45350;-71
2022/04/13 10:22:58;;;;;;;;;12.33;12.00;;;;;16.06;68.86;101319.50;5079387;27;45453;-69
2022/04/13 10:25:27;;;;;;;;;12.00;11.67;;;;;16.02;68.75;101317.75;5073532;28;46581;-68
2022/04/13 10:27:57;;;;;;;;;10.33;10.33;;;;;16.03;69.50;101322.16;5077535;27;45387;-70
2022/04/13 10:30:35;;;;;;;;;16.00;14.33;;;;;15.86;69.38;101301.19;5071482;28;45480;-72
2022/04/13 10:33:12;;;;;;;;;11.00;10.00;;;;;15.85;69.00;101282.72;5076407;28;48154;-72
2022/04/13 10:35:40;;;;;;;;;8.67;8.33;;;;;16.27;69.24;101336.84;5070802;27;45515;-70
2022/04/13 10:38:07;;;;;;;;;9.00;7.00;;;;;15.99;68.46;101266.72;5076475;27;45933;-70
2022/04/13 10:40:40;;;;;;;;;11.00;9.33;;;;;16.35;68.31;101317.38;5075873;27;45711;-69
2022/04/13 10:43:08;;;;;;;;;13.33;9.00;;;;;16.53;68.10;101330.34;5075184;27;46118;-69
2022/04/13 10:45:34;;;;;;;;;7.00;7.00;;;;;16.49;67.44;101324.25;5075901;27;45486;-69
2022/04/13 10:48:04;;;;;;;;;10.33;9.33;;;;;16.38;66.65;101307.66;5067894;27;45365;-68
2022/04/13 10:51:02;;;;;;;;;10.00;9.00;;;;;16.13;66.67;101245.41;5076222;27;45452;-70
2022/04/13 10:53:39;;;;;;;;;9.00;7.33;;;;;16.59;66.94;101319.72;5069204;28;46204;-71
2022/04/13 10:56:42;;;;;;;;;9.33;7.67;;;;;16.62;66.93;101306.44;5076993;27;45821;-71
2022/04/13 10:59:27;;;;;;;;;9.00;7.33;;;;;16.62;66.64;101279.13;5075944;28;45384;-73
2022/04/13 11:02:06;;;;;;;;;14.67;9.00;;;;;16.86;66.71;101322.88;5077685;27;45336;-71
2022/04/13 11:04:33;;;;;;;;;10.00;9.67;;;;;16.53;66.73;101243.97;5069252;28;45505;-72
2022/04/13 11:07:01;;;;;;;;;10.67;9.33;;;;;17.10;66.72;101332.22;5074338;27;45328;-70
2022/04/13 11:09:31;;;;;;;;;8.67;8.67;;;;;17.18;66.41;101327.69;5075930;27;45496;-70
2022/04/13 11:12:03;;;;;;;;;10.67;10.67;;;;;17.18;66.12;101322.41;5074967;27;45443;-68
2022/04/13 11:14:45;;;;;;;;;6.33;6.33;;;;;17.02;65.16;101290.00;5075683;28;46209;-68
2022/04/13 11:17:10;;;;;;;;;8.00;7.00;;;;;17.32;65.49;101344.25;5073562;28;45370;-69
2022/04/13 11:19:36;;;;;;;;;10.00;10.00;;;;;17.29;65.66;101319.56;5074802;27;45520;-67
2022/04/13 11:22:01;;;;;;;;;52.25;41.75;;;;;17.41;65.77;101327.31;5075238;27;45490;-68
2022/04/13 11:24:37;;;;;;;;;31.25;27.50;;;;;17.25;65.21;101300.22;5074047;28;47850;-69
2022/04/13 11:27:04;;;;;;;;;24.33;19.67;;;;;17.04;65.61;101256.47;5074329;27;45424;-69
2022/04/13 11:29:39;;;;;;;;;17.33;15.67;;;;;17.47;65.39;101335.16;5075240;28;45412;-68
2022/04/13 11:32:09;;;;;;;;;15.33;14.00;;;;;17.38;65.06;101316.78;5072943;28;45397;-69
2022/04/13 11:34:51;;;;;;;;;12.00;10.00;;;;;16.60;64.47;101170.69;5075561;28;45460;-66
2022/04/13 11:37:23;;;;;;;;;12.67;11.00;;;;;17.59;64.00;101332.28;5075305;27;45345;-69
2022/04/13 11:40:02;;;;;;;;;8.00;8.00;;;;;17.63;63.98;101330.47;5076312;27;45819;-71